sensor_id;sensor_type;location;lat;lon;timestamp;P1;durP1;ratioP1;P2;durP2;ratioP2
13698;SDS011;6921;53.642;9.956;2022-07-06T00:01:04;3.58;;;1.63;;
13698;SDS011;6921;53.642;9.956;2022-07-06T00:03:08;2.65;;;1.50;;
13698;SDS011;6921;53.642;9.956;2022-07-06T00:05:13;5.15;;;1.70;;
13698;SDS011;6921;53.642;9.956;2022-07-06T00:07:18;3.67;;;1.58;;
13698;SDS011;6921;53.642;9.956;2022-07-06T00:09:25;4.00;;;1.90;;
13698;SDS011;6921;53.642;9.956;2022-07-06T00:11:30;3.38;;;1.50;;
13698;SDS011;6921;53.642;9.956;2022-07-06T00:13:35;3.58;;;1.58;;
13698;SDS011;6921;53.642;9.956;2022-07-06T00:15:40;7.10;;;1.50;;
13698;SDS011;6921;53.642;9.956;2022-07-06T00:17:44;2.40;;;1.50;;
13698;SDS011;6921;53.642;9.956;2022-07-06T00:19:49;3.20;;;1.58;;
13698;SDS011;6921;53.642;9.956;2022-07-06T00:21:56;6.10;;;1.52;;
13698;SDS011;6921;53.642;9.956;2022-07-06T00:24:01;3.83;;;1.45;;
13698;SDS011;6921;53.642;9.956;2022-07-06T00:26:05;2.63;;;1.63;;
13698;SDS011;6921;53.642;9.956;2022-07-06T00:28:11;2.83;;;1.58;;
13698;SDS011;6921;53.642;9.956;2022-07-06T00:30:16;2.60;;;1.55;;
13698;SDS011;6921;53.642;9.956;2022-07-06T00:32:21;3.78;;;1.40;;
13698;SDS011;6921;53.642;9.956;2022-07-06T00:34:23;7.22;;;1.70;;
13698;SDS011;6921;53.642;9.956;2022-07-06T00:36:28;3.75;;;1.58;;
13698;SDS011;6921;53.642;9.956;2022-07-06T00:38:33;3.20;;;1.30;;
13698;SDS011;6921;53.642;9.956;2022-07-06T00:40:38;4.03;;;1.55;;
13698;SDS011;6921;53.642;9.956;2022-07-06T00:42:45;4.85;;;1.75;;
13698;SDS011;6921;53.642;9.956;2022-07-06T00:44:50;2.63;;;1.50;;
13698;SDS011;6921;53.642;9.956;2022-07-06T00:46:55;3.35;;;1.40;;
13698;SDS011;6921;53.642;9.956;2022-07-06T00:49:00;4.13;;;1.58;;
13698;SDS011;6921;53.642;9.956;2022-07-06T00:51:04;2.63;;;1.63;;
13698;SDS011;6921;53.642;9.956;2022-07-06T00:53:08;5.57;;;1.70;;
13698;SDS011;6921;53.642;9.956;2022-07-06T00:55:14;3.63;;;1.63;;
13698;SDS011;6921;53.642;9.956;2022-07-06T00:57:20;3.90;;;1.70;;
13698;SDS011;6921;53.642;9.956;2022-07-06T00:59:28;6.18;;;1.75;;
13698;SDS011;6921;53.642;9.956;2022-07-06T01:01:33;3.13;;;1.60;;
13698;SDS011;6921;53.642;9.956;2022-07-06T01:03:38;4.05;;;1.50;;
13698;SDS011;6921;53.642;9.956;2022-07-06T01:05:43;2.20;;;1.50;;
13698;SDS011;6921;53.642;9.956;2022-07-06T01:07:49;3.70;;;1.50;;
13698;SDS011;6921;53.642;9.956;2022-07-06T01:09:54;4.35;;;1.65;;
13698;SDS011;6921;53.642;9.956;2022-07-06T01:11:59;2.90;;;1.52;;
13698;SDS011;6921;53.642;9.956;2022-07-06T01:14:06;3.67;;;1.70;;
13698;SDS011;6921;53.642;9.956;2022-07-06T01:16:11;3.65;;;1.58;;
13698;SDS011;6921;53.642;9.956;2022-07-06T01:18:17;6.28;;;1.73;;
13698;SDS011;6921;53.642;9.956;2022-07-06T01:20:23;5.72;;;2.03;;
13698;SDS011;6921;53.642;9.956;2022-07-06T01:22:29;3.38;;;1.40;;
13698;SDS011;6921;53.642;9.956;2022-07-06T01:24:34;2.42;;;1.70;;
13698;SDS011;6921;53.642;9.956;2022-07-06T01:26:40;4.03;;;1.60;;
13698;SDS011;6921;53.642;9.956;2022-07-06T01:28:45;3.63;;;1.73;;
13698;SDS011;6921;53.642;9.956;2022-07-06T01:30:50;4.63;;;1.60;;
13698;SDS011;6921;53.642;9.956;2022-07-06T01:32:55;3.50;;;1.48;;
13698;SDS011;6921;53.642;9.956;2022-07-06T01:35:00;4.55;;;1.50;;
13698;SDS011;6921;53.642;9.956;2022-07-06T01:37:06;5.53;;;1.92;;
13698;SDS011;6921;53.642;9.956;2022-07-06T01:39:11;4.40;;;1.88;;
13698;SDS011;6921;53.642;9.956;2022-07-06T01:41:18;3.83;;;1.80;;
13698;SDS011;6921;53.642;9.956;2022-07-06T01:43:26;2.95;;;1.70;;
13698;SDS011;6921;53.642;9.956;2022-07-06T01:45:30;2.72;;;1.55;;
13698;SDS011;6921;53.642;9.956;2022-07-06T01:47:35;4.28;;;1.60;;
13698;SDS011;6921;53.642;9.956;2022-07-06T01:49:40;5.38;;;1.75;;
13698;SDS011;6921;53.642;9.956;2022-07-06T01:51:43;5.25;;;1.85;;
13698;SDS011;6921;53.642;9.956;2022-07-06T01:53:49;3.63;;;1.60;;
13698;SDS011;6921;53.642;9.956;2022-07-06T01:55:55;6.45;;;1.98;;
13698;SDS011;6921;53.642;9.956;2022-07-06T01:58:01;3.88;;;1.70;;
13698;SDS011;6921;53.642;9.956;2022-07-06T02:00:07;4.03;;;1.42;;
13698;SDS011;6921;53.642;9.956;2022-07-06T02:02:14;3.28;;;2.10;;
13698;SDS011;6921;53.642;9.956;2022-07-06T02:04:20;3.72;;;1.50;;
13698;SDS011;6921;53.642;9.956;2022-07-06T02:06:23;6.07;;;1.80;;
13698;SDS011;6921;53.642;9.956;2022-07-06T02:08:29;1.95;;;1.52;;
13698;SDS011;6921;53.642;9.956;2022-07-06T02:10:36;4.57;;;1.65;;
13698;SDS011;6921;53.642;9.956;2022-07-06T02:12:41;4.60;;;1.75;;
13698;SDS011;6921;53.642;9.956;2022-07-06T02:14:46;2.22;;;1.30;;
13698;SDS011;6921;53.642;9.956;2022-07-06T02:16:52;2.92;;;1.40;;
13698;SDS011;6921;53.642;9.956;2022-07-06T02:18:56;2.80;;;1.52;;
13698;SDS011;6921;53.642;9.956;2022-07-06T02:21:01;3.20;;;1.60;;
13698;SDS011;6921;53.642;9.956;2022-07-06T02:23:08;4.78;;;1.70;;
13698;SDS011;6921;53.642;9.956;2022-07-06T02:25:13;5.57;;;1.70;;
13698;SDS011;6921;53.642;9.956;2022-07-06T02:27:20;3.83;;;2.05;;
13698;SDS011;6921;53.642;9.956;2022-07-06T02:29:24;4.43;;;1.90;;
13698;SDS011;6921;53.642;9.956;2022-07-06T02:31:29;2.50;;;1.75;;
13698;SDS011;6921;53.642;9.956;2022-07-06T02:33:33;4.53;;;1.85;;
13698;SDS011;6921;53.642;9.956;2022-07-06T02:35:37;4.43;;;1.75;;
13698;SDS011;6921;53.642;9.956;2022-07-06T02:37:43;7.07;;;1.75;;
13698;SDS011;6921;53.642;9.956;2022-07-06T02:39:50;4.60;;;1.60;;
13698;SDS011;6921;53.642;9.956;2022-07-06T02:41:55;3.58;;;1.85;;
13698;SDS011;6921;53.642;9.956;2022-07-06T02:43:59;4.22;;;1.65;;
13698;SDS011;6921;53.642;9.956;2022-07-06T02:46:02;6.47;;;1.77;;
13698;SDS011;6921;53.642;9.956;2022-07-06T02:48:05;4.75;;;1.48;;
13698;SDS011;6921;53.642;9.956;2022-07-06T02:50:09;2.95;;;1.55;;
13698;SDS011;6921;53.642;9.956;2022-07-06T02:52:12;4.43;;;1.55;;
13698;SDS011;6921;53.642;9.956;2022-07-06T02:54:15;3.17;;;1.27;;
13698;SDS011;6921;53.642;9.956;2022-07-06T02:56:18;5.03;;;1.38;;
13698;SDS011;6921;53.642;9.956;2022-07-06T02:58:22;3.95;;;1.50;;
13698;SDS011;6921;53.642;9.956;2022-07-06T03:00:27;3.55;;;1.40;;
13698;SDS011;6921;53.642;9.956;2022-07-06T03:02:30;4.18;;;1.25;;
13698;SDS011;6921;53.642;9.956;2022-07-06T03:04:33;1.35;;;1.17;;
13698;SDS011;6921;53.642;9.956;2022-07-06T03:06:38;1.58;;;0.80;;
13698;SDS011;6921;53.642;9.956;2022-07-06T03:08:41;1.85;;;1.10;;
13698;SDS011;6921;53.642;9.956;2022-07-06T03:10:44;2.38;;;1.20;;
13698;SDS011;6921;53.642;9.956;2022-07-06T03:12:47;1.42;;;0.80;;
13698;SDS011;6921;53.642;9.956;2022-07-06T03:14:50;4.10;;;1.10;;
13698;SDS011;6921;53.642;9.956;2022-07-06T03:16:54;4.10;;;1.20;;
13698;SDS011;6921;53.642;9.956;2022-07-06T03:18:57;2.17;;;1.20;;
13698;SDS011;6921;53.642;9.956;2022-07-06T03:21:00;3.00;;;1.20;;
13698;SDS011;6921;53.642;9.956;2022-07-06T03:23:04;3.88;;;1.25;;
13698;SDS011;6921;53.642;9.956;2022-07-06T03:25:07;2.97;;;1.20;;
13698;SDS011;6921;53.642;9.956;2022-07-06T03:27:10;2.78;;;1.25;;
13698;SDS011;6921;53.642;9.956;2022-07-06T03:29:13;2.42;;;1.30;;
13698;SDS011;6921;53.642;9.956;2022-07-06T03:31:16;3.58;;;1.60;;
13698;SDS011;6921;53.642;9.956;2022-07-06T03:33:21;3.33;;;1.20;;
13698;SDS011;6921;53.642;9.956;2022-07-06T03:35:24;3.22;;;1.27;;
13698;SDS011;6921;53.642;9.956;2022-07-06T03:37:27;5.18;;;1.63;;
13698;SDS011;6921;53.642;9.956;2022-07-06T03:39:30;3.00;;;1.40;;
13698;SDS011;6921;53.642;9.956;2022-07-06T03:41:33;2.03;;;1.40;;
13698;SDS011;6921;53.642;9.956;2022-07-06T03:43:36;3.60;;;1.42;;
13698;SDS011;6921;53.642;9.956;2022-07-06T03:45:39;4.32;;;1.52;;
13698;SDS011;6921;53.642;9.956;2022-07-06T03:47:42;3.90;;;1.63;;
13698;SDS011;6921;53.642;9.956;2022-07-06T03:49:46;4.97;;;2.05;;
13698;SDS011;6921;53.642;9.956;2022-07-06T03:51:49;6.00;;;1.83;;
13698;SDS011;6921;53.642;9.956;2022-07-06T03:53:52;3.35;;;1.95;;
13698;SDS011;6921;53.642;9.956;2022-07-06T03:55:55;3.67;;;1.60;;
13698;SDS011;6921;53.642;9.956;2022-07-06T03:58:15;3.67;;;1.80;;
13698;SDS011;6921;53.642;9.956;2022-07-06T04:00:18;4.35;;;1.85;;
13698;SDS011;6921;53.642;9.956;2022-07-06T04:02:21;3.60;;;1.73;;
13698;SDS011;6921;53.642;9.956;2022-07-06T04:04:24;4.07;;;1.83;;
13698;SDS011;6921;53.642;9.956;2022-07-06T04:06:29;5.15;;;2.00;;
13698;SDS011;6921;53.642;9.956;2022-07-06T04:08:32;4.20;;;1.75;;
13698;SDS011;6921;53.642;9.956;2022-07-06T04:10:35;5.13;;;2.00;;
13698;SDS011;6921;53.642;9.956;2022-07-06T04:12:39;7.07;;;2.17;;
13698;SDS011;6921;53.642;9.956;2022-07-06T04:14:42;5.82;;;1.92;;
13698;SDS011;6921;53.642;9.956;2022-07-06T04:16:45;4.75;;;1.90;;
13698;SDS011;6921;53.642;9.956;2022-07-06T04:18:48;2.50;;;1.85;;
13698;SDS011;6921;53.642;9.956;2022-07-06T04:20:51;7.45;;;1.83;;
13698;SDS011;6921;53.642;9.956;2022-07-06T04:22:59;5.07;;;1.95;;
13698;SDS011;6921;53.642;9.956;2022-07-06T04:25:05;5.35;;;1.92;;
13698;SDS011;6921;53.642;9.956;2022-07-06T04:27:10;6.65;;;1.75;;
13698;SDS011;6921;53.642;9.956;2022-07-06T04:29:13;3.65;;;1.50;;
13698;SDS011;6921;53.642;9.956;2022-07-06T04:31:18;5.75;;;1.95;;
13698;SDS011;6921;53.642;9.956;2022-07-06T04:33:23;6.40;;;2.25;;
13698;SDS011;6921;53.642;9.956;2022-07-06T04:35:28;3.50;;;1.63;;
13698;SDS011;6921;53.642;9.956;2022-07-06T04:37:33;6.18;;;1.70;;
13698;SDS011;6921;53.642;9.956;2022-07-06T04:39:40;3.83;;;1.90;;
13698;SDS011;6921;53.642;9.956;2022-07-06T04:41:46;8.15;;;1.80;;
13698;SDS011;6921;53.642;9.956;2022-07-06T04:43:51;6.20;;;1.58;;
13698;SDS011;6921;53.642;9.956;2022-07-06T04:45:56;5.25;;;1.48;;
13698;SDS011;6921;53.642;9.956;2022-07-06T04:48:02;3.75;;;1.45;;
13698;SDS011;6921;53.642;9.956;2022-07-06T04:50:07;3.03;;;1.58;;
13698;SDS011;6921;53.642;9.956;2022-07-06T04:52:12;3.17;;;1.65;;
13698;SDS011;6921;53.642;9.956;2022-07-06T04:54:15;3.03;;;1.25;;
13698;SDS011;6921;53.642;9.956;2022-07-06T04:56:21;2.53;;;1.50;;
13698;SDS011;6921;53.642;9.956;2022-07-06T04:58:28;3.58;;;1.42;;
13698;SDS011;6921;53.642;9.956;2022-07-06T05:00:32;6.07;;;1.80;;
13698;SDS011;6921;53.642;9.956;2022-07-06T05:02:37;6.82;;;1.92;;
13698;SDS011;6921;53.642;9.956;2022-07-06T05:04:42;4.88;;;1.80;;
13698;SDS011;6921;53.642;9.956;2022-07-06T05:06:48;2.92;;;1.50;;
13698;SDS011;6921;53.642;9.956;2022-07-06T05:08:52;3.60;;;1.55;;
13698;SDS011;6921;53.642;9.956;2022-07-06T05:10:57;9.38;;;2.22;;
13698;SDS011;6921;53.642;9.956;2022-07-06T05:13:03;2.47;;;1.50;;
13698;SDS011;6921;53.642;9.956;2022-07-06T05:15:08;5.70;;;1.80;;
13698;SDS011;6921;53.642;9.956;2022-07-06T05:17:13;3.85;;;1.50;;
13698;SDS011;6921;53.642;9.956;2022-07-06T05:19:18;5.15;;;1.70;;
13698;SDS011;6921;53.642;9.956;2022-07-06T05:21:24;5.70;;;1.60;;
13698;SDS011;6921;53.642;9.956;2022-07-06T05:23:28;4.45;;;1.70;;
13698;SDS011;6921;53.642;9.956;2022-07-06T05:25:33;2.30;;;1.58;;
13698;SDS011;6921;53.642;9.956;2022-07-06T05:27:38;6.22;;;1.77;;
13698;SDS011;6921;53.642;9.956;2022-07-06T05:29:43;5.05;;;1.70;;
13698;SDS011;6921;53.642;9.956;2022-07-06T05:31:48;3.88;;;1.35;;
13698;SDS011;6921;53.642;9.956;2022-07-06T05:33:52;6.72;;;1.95;;
13698;SDS011;6921;53.642;9.956;2022-07-06T05:35:55;6.18;;;1.55;;
13698;SDS011;6921;53.642;9.956;2022-07-06T05:38:00;4.60;;;1.50;;
13698;SDS011;6921;53.642;9.956;2022-07-06T05:40:06;3.17;;;1.40;;
13698;SDS011;6921;53.642;9.956;2022-07-06T05:42:09;5.05;;;1.75;;
13698;SDS011;6921;53.642;9.956;2022-07-06T05:44:14;3.40;;;1.38;;
13698;SDS011;6921;53.642;9.956;2022-07-06T05:46:20;6.50;;;1.52;;
13698;SDS011;6921;53.642;9.956;2022-07-06T05:48:23;3.40;;;1.55;;
13698;SDS011;6921;53.642;9.956;2022-07-06T05:50:45;7.07;;;1.77;;
13698;SDS011;6921;53.642;9.956;2022-07-06T05:52:55;3.65;;;1.58;;
13698;SDS011;6921;53.642;9.956;2022-07-06T05:54:58;2.42;;;1.40;;
13698;SDS011;6921;53.642;9.956;2022-07-06T05:57:01;5.95;;;1.70;;
13698;SDS011;6921;53.642;9.956;2022-07-06T05:59:05;6.60;;;1.70;;
13698;SDS011;6921;53.642;9.956;2022-07-06T06:01:09;4.95;;;1.95;;
13698;SDS011;6921;53.642;9.956;2022-07-06T06:03:15;3.50;;;2.00;;
13698;SDS011;6921;53.642;9.956;2022-07-06T06:05:20;4.88;;;1.70;;
13698;SDS011;6921;53.642;9.956;2022-07-06T06:07:25;4.93;;;1.75;;
13698;SDS011;6921;53.642;9.956;2022-07-06T06:09:30;2.88;;;1.65;;
13698;SDS011;6921;53.642;9.956;2022-07-06T06:11:35;4.85;;;1.70;;
13698;SDS011;6921;53.642;9.956;2022-07-06T06:13:38;5.28;;;1.88;;
13698;SDS011;6921;53.642;9.956;2022-07-06T06:15:41;4.38;;;1.48;;
13698;SDS011;6921;53.642;9.956;2022-07-06T06:17:46;5.00;;;1.60;;
13698;SDS011;6921;53.642;9.956;2022-07-06T06:19:52;3.78;;;1.70;;
13698;SDS011;6921;53.642;9.956;2022-07-06T06:21:56;4.07;;;1.80;;
13698;SDS011;6921;53.642;9.956;2022-07-06T06:24:01;4.40;;;1.85;;
13698;SDS011;6921;53.642;9.956;2022-07-06T06:26:08;4.07;;;1.63;;
13698;SDS011;6921;53.642;9.956;2022-07-06T06:28:13;2.90;;;1.40;;
13698;SDS011;6921;53.642;9.956;2022-07-06T06:30:17;2.55;;;1.42;;
13698;SDS011;6921;53.642;9.956;2022-07-06T06:32:20;4.72;;;1.75;;
13698;SDS011;6921;53.642;9.956;2022-07-06T06:34:25;3.08;;;1.65;;
13698;SDS011;6921;53.642;9.956;2022-07-06T06:36:29;5.57;;;2.00;;
13698;SDS011;6921;53.642;9.956;2022-07-06T06:38:32;5.05;;;1.60;;
13698;SDS011;6921;53.642;9.956;2022-07-06T06:40:35;3.83;;;1.50;;
13698;SDS011;6921;53.642;9.956;2022-07-06T06:42:39;3.30;;;1.70;;
13698;SDS011;6921;53.642;9.956;2022-07-06T06:44:44;5.00;;;1.55;;
13698;SDS011;6921;53.642;9.956;2022-07-06T06:46:47;4.22;;;1.45;;
13698;SDS011;6921;53.642;9.956;2022-07-06T06:48:50;3.25;;;1.35;;
13698;SDS011;6921;53.642;9.956;2022-07-06T06:50:53;3.42;;;1.23;;
13698;SDS011;6921;53.642;9.956;2022-07-06T06:52:57;5.22;;;1.40;;
13698;SDS011;6921;53.642;9.956;2022-07-06T06:55:00;4.30;;;1.40;;
13698;SDS011;6921;53.642;9.956;2022-07-06T06:57:03;6.50;;;1.30;;
13698;SDS011;6921;53.642;9.956;2022-07-06T06:59:07;4.03;;;1.63;;
13698;SDS011;6921;53.642;9.956;2022-07-06T07:01:18;2.38;;;1.15;;
13698;SDS011;6921;53.642;9.956;2022-07-06T07:03:23;4.95;;;1.50;;
13698;SDS011;6921;53.642;9.956;2022-07-06T07:05:26;3.33;;;1.40;;
13698;SDS011;6921;53.642;9.956;2022-07-06T07:07:29;6.25;;;1.30;;
13698;SDS011;6921;53.642;9.956;2022-07-06T07:09:33;2.65;;;1.10;;
13698;SDS011;6921;53.642;9.956;2022-07-06T07:11:36;4.22;;;1.20;;
13698;SDS011;6921;53.642;9.956;2022-07-06T07:13:39;6.50;;;1.33;;
13698;SDS011;6921;53.642;9.956;2022-07-06T07:15:42;7.80;;;1.52;;
13698;SDS011;6921;53.642;9.956;2022-07-06T07:17:45;3.38;;;1.48;;
13698;SDS011;6921;53.642;9.956;2022-07-06T07:19:48;7.30;;;1.38;;
13698;SDS011;6921;53.642;9.956;2022-07-06T07:21:51;6.20;;;1.45;;
13698;SDS011;6921;53.642;9.956;2022-07-06T07:23:54;2.83;;;1.35;;
13698;SDS011;6921;53.642;9.956;2022-07-06T07:25:58;4.47;;;0.90;;
13698;SDS011;6921;53.642;9.956;2022-07-06T07:28:01;3.70;;;1.08;;
13698;SDS011;6921;53.642;9.956;2022-07-06T07:30:06;3.58;;;0.95;;
13698;SDS011;6921;53.642;9.956;2022-07-06T07:32:10;4.97;;;1.40;;
13698;SDS011;6921;53.642;9.956;2022-07-06T07:34:15;1.42;;;0.88;;
13698;SDS011;6921;53.642;9.956;2022-07-06T07:36:21;4.10;;;1.02;;
13698;SDS011;6921;53.642;9.956;2022-07-06T07:38:25;3.30;;;0.82;;
13698;SDS011;6921;53.642;9.956;2022-07-06T07:40:29;4.00;;;0.80;;
13698;SDS011;6921;53.642;9.956;2022-07-06T07:42:36;2.47;;;0.82;;
13698;SDS011;6921;53.642;9.956;2022-07-06T07:44:42;2.25;;;0.80;;
13698;SDS011;6921;53.642;9.956;2022-07-06T07:46:44;4.30;;;1.00;;
13698;SDS011;6921;53.642;9.956;2022-07-06T07:48:47;3.00;;;0.90;;
13698;SDS011;6921;53.642;9.956;2022-07-06T07:50:50;2.60;;;0.95;;
13698;SDS011;6921;53.642;9.956;2022-07-06T07:52:53;1.13;;;0.73;;
13698;SDS011;6921;53.642;9.956;2022-07-06T07:54:56;1.17;;;0.90;;
13698;SDS011;6921;53.642;9.956;2022-07-06T07:57:20;3.33;;;1.08;;
13698;SDS011;6921;53.642;9.956;2022-07-06T07:59:24;1.77;;;1.05;;
13698;SDS011;6921;53.642;9.956;2022-07-06T08:01:29;1.63;;;0.70;;
13698;SDS011;6921;53.642;9.956;2022-07-06T08:03:33;2.55;;;0.90;;
13698;SDS011;6921;53.642;9.956;2022-07-06T08:05:37;2.78;;;0.95;;
13698;SDS011;6921;53.642;9.956;2022-07-06T08:07:42;2.42;;;0.80;;
13698;SDS011;6921;53.642;9.956;2022-07-06T08:09:46;1.27;;;0.65;;
13698;SDS011;6921;53.642;9.956;2022-07-06T08:11:50;2.95;;;0.80;;
13698;SDS011;6921;53.642;9.956;2022-07-06T08:13:54;3.83;;;0.80;;
13698;SDS011;6921;53.642;9.956;2022-07-06T08:15:59;0.93;;;0.70;;
13698;SDS011;6921;53.642;9.956;2022-07-06T08:18:04;3.60;;;0.70;;
13698;SDS011;6921;53.642;9.956;2022-07-06T08:20:09;1.25;;;0.80;;
13698;SDS011;6921;53.642;9.956;2022-07-06T08:22:13;3.30;;;1.10;;
13698;SDS011;6921;53.642;9.956;2022-07-06T08:24:17;1.08;;;0.75;;
13698;SDS011;6921;53.642;9.956;2022-07-06T08:26:22;2.15;;;1.00;;
13698;SDS011;6921;53.642;9.956;2022-07-06T08:28:26;2.60;;;1.08;;
13698;SDS011;6921;53.642;9.956;2022-07-06T08:30:30;1.85;;;0.80;;
13698;SDS011;6921;53.642;9.956;2022-07-06T08:32:38;2.90;;;0.80;;
13698;SDS011;6921;53.642;9.956;2022-07-06T08:35:02;2.72;;;0.90;;
13698;SDS011;6921;53.642;9.956;2022-07-06T08:37:07;2.35;;;1.15;;
13698;SDS011;6921;53.642;9.956;2022-07-06T08:39:11;1.65;;;0.80;;
13698;SDS011;6921;53.642;9.956;2022-07-06T08:41:15;1.00;;;0.90;;
13698;SDS011;6921;53.642;9.956;2022-07-06T08:43:21;1.00;;;0.80;;
13698;SDS011;6921;53.642;9.956;2022-07-06T08:45:26;1.38;;;1.00;;
13698;SDS011;6921;53.642;9.956;2022-07-06T08:47:31;2.42;;;1.27;;
13698;SDS011;6921;53.642;9.956;2022-07-06T08:49:36;2.88;;;1.70;;
13698;SDS011;6921;53.642;9.956;2022-07-06T08:51:41;2.92;;;1.50;;
13698;SDS011;6921;53.642;9.956;2022-07-06T08:53:45;2.58;;;0.93;;
13698;SDS011;6921;53.642;9.956;2022-07-06T08:55:50;1.58;;;1.17;;
13698;SDS011;6921;53.642;9.956;2022-07-06T08:57:53;1.55;;;1.13;;
13698;SDS011;6921;53.642;9.956;2022-07-06T08:59:59;3.20;;;1.23;;
13698;SDS011;6921;53.642;9.956;2022-07-06T09:02:04;1.50;;;1.00;;
13698;SDS011;6921;53.642;9.956;2022-07-06T09:04:09;2.35;;;1.45;;
13698;SDS011;6921;53.642;9.956;2022-07-06T09:06:16;2.40;;;0.68;;
13698;SDS011;6921;53.642;9.956;2022-07-06T09:08:21;2.42;;;0.95;;
13698;SDS011;6921;53.642;9.956;2022-07-06T09:10:27;1.20;;;0.65;;
13698;SDS011;6921;53.642;9.956;2022-07-06T09:12:32;3.95;;;1.00;;
13698;SDS011;6921;53.642;9.956;2022-07-06T09:14:37;1.25;;;0.88;;
13698;SDS011;6921;53.642;9.956;2022-07-06T09:16:42;1.15;;;0.85;;
13698;SDS011;6921;53.642;9.956;2022-07-06T09:18:45;2.15;;;1.00;;
13698;SDS011;6921;53.642;9.956;2022-07-06T09:20:49;1.60;;;0.93;;
13698;SDS011;6921;53.642;9.956;2022-07-06T09:22:56;2.15;;;0.90;;
13698;SDS011;6921;53.642;9.956;2022-07-06T09:25:05;1.77;;;1.20;;
13698;SDS011;6921;53.642;9.956;2022-07-06T09:27:15;3.47;;;1.55;;
13698;SDS011;6921;53.642;9.956;2022-07-06T09:29:24;2.78;;;1.85;;
13698;SDS011;6921;53.642;9.956;2022-07-06T09:31:29;4.32;;;1.27;;
13698;SDS011;6921;53.642;9.956;2022-07-06T09:33:34;2.03;;;1.00;;
13698;SDS011;6921;53.642;9.956;2022-07-06T09:35:38;1.85;;;0.90;;
13698;SDS011;6921;53.642;9.956;2022-07-06T09:37:43;1.83;;;0.90;;
13698;SDS011;6921;53.642;9.956;2022-07-06T09:39:50;1.77;;;0.77;;
13698;SDS011;6921;53.642;9.956;2022-07-06T09:41:55;1.88;;;0.80;;
13698;SDS011;6921;53.642;9.956;2022-07-06T09:44:00;0.77;;;0.77;;
13698;SDS011;6921;53.642;9.956;2022-07-06T09:46:04;1.85;;;0.90;;
13698;SDS011;6921;53.642;9.956;2022-07-06T09:48:10;1.30;;;0.65;;
13698;SDS011;6921;53.642;9.956;2022-07-06T09:50:16;1.15;;;0.60;;
13698;SDS011;6921;53.642;9.956;2022-07-06T09:52:20;3.88;;;0.70;;
13698;SDS011;6921;53.642;9.956;2022-07-06T09:54:27;2.38;;;0.60;;
13698;SDS011;6921;53.642;9.956;2022-07-06T09:56:36;1.85;;;0.90;;
13698;SDS011;6921;53.642;9.956;2022-07-06T09:58:40;2.10;;;0.52;;
13698;SDS011;6921;53.642;9.956;2022-07-06T10:01:02;1.30;;;0.63;;
13698;SDS011;6921;53.642;9.956;2022-07-06T10:03:07;0.55;;;0.35;;
13698;SDS011;6921;53.642;9.956;2022-07-06T10:05:11;0.55;;;0.40;;
13698;SDS011;6921;53.642;9.956;2022-07-06T10:07:15;0.77;;;0.50;;
13698;SDS011;6921;53.642;9.956;2022-07-06T10:09:20;1.10;;;0.65;;
13698;SDS011;6921;53.642;9.956;2022-07-06T10:11:24;2.35;;;0.60;;
13698;SDS011;6921;53.642;9.956;2022-07-06T10:13:30;0.70;;;0.50;;
13698;SDS011;6921;53.642;9.956;2022-07-06T10:15:36;0.80;;;0.40;;
13698;SDS011;6921;53.642;9.956;2022-07-06T10:17:41;0.65;;;0.40;;
13698;SDS011;6921;53.642;9.956;2022-07-06T10:19:45;1.10;;;0.40;;
13698;SDS011;6921;53.642;9.956;2022-07-06T10:21:50;0.40;;;0.40;;
13698;SDS011;6921;53.642;9.956;2022-07-06T10:23:55;2.78;;;0.55;;
13698;SDS011;6921;53.642;9.956;2022-07-06T10:26:01;1.55;;;0.47;;
13698;SDS011;6921;53.642;9.956;2022-07-06T10:28:10;0.80;;;0.28;;
13698;SDS011;6921;53.642;9.956;2022-07-06T10:30:17;2.60;;;0.57;;
13698;SDS011;6921;53.642;9.956;2022-07-06T10:32:22;1.42;;;0.43;;
13698;SDS011;6921;53.642;9.956;2022-07-06T10:34:26;2.13;;;0.50;;
13698;SDS011;6921;53.642;9.956;2022-07-06T10:36:30;0.70;;;0.40;;
13698;SDS011;6921;53.642;9.956;2022-07-06T10:38:35;0.98;;;0.43;;
13698;SDS011;6921;53.642;9.956;2022-07-06T10:40:40;1.50;;;0.43;;
13698;SDS011;6921;53.642;9.956;2022-07-06T10:43:02;2.72;;;1.13;;
13698;SDS011;6921;53.642;9.956;2022-07-06T10:45:06;1.85;;;1.40;;
13698;SDS011;6921;53.642;9.956;2022-07-06T10:47:12;5.22;;;2.47;;
13698;SDS011;6921;53.642;9.956;2022-07-06T10:49:17;5.72;;;2.17;;
13698;SDS011;6921;53.642;9.956;2022-07-06T10:51:41;4.60;;;1.60;;
13698;SDS011;6921;53.642;9.956;2022-07-06T10:53:45;2.50;;;1.50;;
13698;SDS011;6921;53.642;9.956;2022-07-06T10:55:50;3.58;;;1.67;;
13698;SDS011;6921;53.642;9.956;2022-07-06T10:57:54;5.05;;;1.13;;
13698;SDS011;6921;53.642;9.956;2022-07-06T11:00:02;2.28;;;0.88;;
13698;SDS011;6921;53.642;9.956;2022-07-06T11:02:15;1.92;;;0.77;;
13698;SDS011;6921;53.642;9.956;2022-07-06T11:04:22;1.48;;;0.70;;
13698;SDS011;6921;53.642;9.956;2022-07-06T11:06:35;3.03;;;0.98;;
13698;SDS011;6921;53.642;9.956;2022-07-06T11:08:47;2.58;;;0.47;;
13698;SDS011;6921;53.642;9.956;2022-07-06T11:10:51;1.60;;;0.60;;
13698;SDS011;6921;53.642;9.956;2022-07-06T11:12:58;2.90;;;0.60;;
13698;SDS011;6921;53.642;9.956;2022-07-06T11:15:02;3.70;;;0.70;;
13698;SDS011;6921;53.642;9.956;2022-07-06T11:17:09;3.20;;;0.70;;
13698;SDS011;6921;53.642;9.956;2022-07-06T11:19:15;2.22;;;0.95;;
13698;SDS011;6921;53.642;9.956;2022-07-06T11:21:20;2.83;;;0.70;;
13698;SDS011;6921;53.642;9.956;2022-07-06T11:23:24;2.83;;;0.70;;
13698;SDS011;6921;53.642;9.956;2022-07-06T11:25:29;4.00;;;0.70;;
13698;SDS011;6921;53.642;9.956;2022-07-06T11:27:33;2.60;;;0.93;;
13698;SDS011;6921;53.642;9.956;2022-07-06T11:29:37;2.60;;;0.70;;
13698;SDS011;6921;53.642;9.956;2022-07-06T11:31:41;3.65;;;1.42;;
13698;SDS011;6921;53.642;9.956;2022-07-06T11:33:46;1.77;;;0.80;;
13698;SDS011;6921;53.642;9.956;2022-07-06T11:35:52;2.42;;;0.95;;
13698;SDS011;6921;53.642;9.956;2022-07-06T11:37:56;3.92;;;1.23;;
13698;SDS011;6921;53.642;9.956;2022-07-06T11:40:05;2.15;;;0.55;;
13698;SDS011;6921;53.642;9.956;2022-07-06T11:42:10;1.60;;;0.70;;
13698;SDS011;6921;53.642;9.956;2022-07-06T11:44:14;4.47;;;0.68;;
13698;SDS011;6921;53.642;9.956;2022-07-06T11:46:22;3.08;;;0.90;;
13698;SDS011;6921;53.642;9.956;2022-07-06T11:48:26;2.65;;;1.10;;
13698;SDS011;6921;53.642;9.956;2022-07-06T11:50:30;2.13;;;0.68;;
13698;SDS011;6921;53.642;9.956;2022-07-06T11:52:35;2.47;;;0.90;;
13698;SDS011;6921;53.642;9.956;2022-07-06T11:54:38;4.47;;;0.70;;
13698;SDS011;6921;53.642;9.956;2022-07-06T11:56:45;2.30;;;0.60;;
13698;SDS011;6921;53.642;9.956;2022-07-06T11:58:50;4.53;;;0.88;;
13698;SDS011;6921;53.642;9.956;2022-07-06T12:01:03;2.25;;;0.60;;
13698;SDS011;6921;53.642;9.956;2022-07-06T12:03:07;2.25;;;0.60;;
13698;SDS011;6921;53.642;9.956;2022-07-06T12:05:10;2.85;;;0.63;;
13698;SDS011;6921;53.642;9.956;2022-07-06T12:07:14;1.38;;;0.68;;
13698;SDS011;6921;53.642;9.956;2022-07-06T12:09:19;3.60;;;0.63;;
13698;SDS011;6921;53.642;9.956;2022-07-06T12:11:24;1.45;;;0.40;;
13698;SDS011;6921;53.642;9.956;2022-07-06T12:13:28;2.17;;;0.60;;
13698;SDS011;6921;53.642;9.956;2022-07-06T12:15:40;3.08;;;0.60;;
13698;SDS011;6921;53.642;9.956;2022-07-06T12:17:46;1.85;;;0.50;;
13698;SDS011;6921;53.642;9.956;2022-07-06T12:19:52;2.40;;;0.60;;
13698;SDS011;6921;53.642;9.956;2022-07-06T12:21:56;2.15;;;0.60;;
13698;SDS011;6921;53.642;9.956;2022-07-06T12:23:59;2.78;;;0.55;;
13698;SDS011;6921;53.642;9.956;2022-07-06T12:26:04;2.75;;;0.60;;
13698;SDS011;6921;53.642;9.956;2022-07-06T12:28:07;2.95;;;0.63;;
13698;SDS011;6921;53.642;9.956;2022-07-06T12:30:24;1.55;;;0.40;;
13698;SDS011;6921;53.642;9.956;2022-07-06T12:32:27;2.40;;;0.70;;
13698;SDS011;6921;53.642;9.956;2022-07-06T12:34:31;2.70;;;0.70;;
13698;SDS011;6921;53.642;9.956;2022-07-06T12:36:41;2.67;;;0.65;;
13698;SDS011;6921;53.642;9.956;2022-07-06T12:38:46;2.00;;;0.50;;
13698;SDS011;6921;53.642;9.956;2022-07-06T12:40:49;0.55;;;0.40;;
13698;SDS011;6921;53.642;9.956;2022-07-06T12:42:54;2.42;;;0.40;;
13698;SDS011;6921;53.642;9.956;2022-07-06T12:44:57;2.70;;;0.40;;